sensor_id;sensor_type;location;lat;lon;timestamp;P1;durP1;ratioP1;P2;durP2;ratioP2
3085;SDS011;52812;48.960;9.108;2024-02-23T00:00:41;1.67;;;0.90;;
3085;SDS011;52812;48.960;9.108;2024-02-23T00:03:06;0.90;;;0.80;;
3085;SDS011;52812;48.960;9.108;2024-02-23T00:05:33;1.33;;;0.97;;
3085;SDS011;52812;48.960;9.108;2024-02-23T00:07:58;1.33;;;0.93;;
3085;SDS011;52812;48.960;9.108;2024-02-23T00:10:24;2.97;;;1.20;;
3085;SDS011;52812;48.960;9.108;2024-02-23T00:12:50;1.50;;;1.00;;
3085;SDS011;52812;48.960;9.108;2024-02-23T00:15:17;1.37;;;0.90;;
3085;SDS011;52812;48.960;9.108;2024-02-23T00:17:42;2.00;;;1.00;;
3085;SDS011;52812;48.960;9.108;2024-02-23T00:20:08;2.27;;;1.10;;
3085;SDS011;52812;48.960;9.108;2024-02-23T00:22:37;1.93;;;0.97;;
3085;SDS011;52812;48.960;9.108;2024-02-23T00:25:03;2.47;;;1.00;;
3085;SDS011;52812;48.960;9.108;2024-02-23T00:27:30;4.43;;;1.00;;
3085;SDS011;52812;48.960;9.108;2024-02-23T00:29:55;2.20;;;1.20;;
3085;SDS011;52812;48.960;9.108;2024-02-23T00:32:21;1.33;;;1.00;;
3085;SDS011;52812;48.960;9.108;2024-02-23T00:34:46;1.20;;;1.10;;
3085;SDS011;52812;48.960;9.108;2024-02-23T00:37:13;1.53;;;1.10;;
3085;SDS011;52812;48.960;9.108;2024-02-23T00:39:38;3.53;;;1.40;;
3085;SDS011;52812;48.960;9.108;2024-02-23T00:42:04;2.20;;;1.40;;
3085;SDS011;52812;48.960;9.108;2024-02-23T00:44:30;1.77;;;1.20;;
3085;SDS011;52812;48.960;9.108;2024-02-23T00:46:55;3.93;;;1.10;;
3085;SDS011;52812;48.960;9.108;2024-02-23T00:49:23;2.37;;;1.00;;
3085;SDS011;52812;48.960;9.108;2024-02-23T00:51:49;3.03;;;1.13;;
3085;SDS011;52812;48.960;9.108;2024-02-23T00:54:14;1.23;;;1.13;;
3085;SDS011;52812;48.960;9.108;2024-02-23T00:56:40;4.43;;;1.20;;
3085;SDS011;52812;48.960;9.108;2024-02-23T00:59:05;8.00;;;1.30;;
3085;SDS011;52812;48.960;9.108;2024-02-23T01:01:31;1.80;;;1.10;;
3085;SDS011;52812;48.960;9.108;2024-02-23T01:03:57;2.20;;;1.17;;
3085;SDS011;52812;48.960;9.108;2024-02-23T01:06:23;2.50;;;1.10;;
3085;SDS011;52812;48.960;9.108;2024-02-23T01:08:50;2.77;;;1.20;;
3085;SDS011;52812;48.960;9.108;2024-02-23T01:11:15;1.93;;;1.10;;
3085;SDS011;52812;48.960;9.108;2024-02-23T01:13:41;1.80;;;1.17;;
3085;SDS011;52812;48.960;9.108;2024-02-23T01:16:06;4.40;;;1.27;;
3085;SDS011;52812;48.960;9.108;2024-02-23T01:18:33;2.40;;;1.30;;
3085;SDS011;52812;48.960;9.108;2024-02-23T01:20:58;3.47;;;1.30;;
3085;SDS011;52812;48.960;9.108;2024-02-23T01:23:24;3.37;;;1.40;;
3085;SDS011;52812;48.960;9.108;2024-02-23T01:25:49;2.40;;;1.10;;
3085;SDS011;52812;48.960;9.108;2024-02-23T01:28:15;1.30;;;1.20;;
3085;SDS011;52812;48.960;9.108;2024-02-23T01:30:41;2.20;;;1.03;;
3085;SDS011;52812;48.960;9.108;2024-02-23T01:33:06;3.77;;;1.30;;
3085;SDS011;52812;48.960;9.108;2024-02-23T01:35:32;3.07;;;1.20;;
3085;SDS011;52812;48.960;9.108;2024-02-23T01:37:57;5.40;;;1.40;;
3085;SDS011;52812;48.960;9.108;2024-02-23T01:40:23;2.00;;;1.30;;
3085;SDS011;52812;48.960;9.108;2024-02-23T01:42:49;2.27;;;1.10;;
3085;SDS011;52812;48.960;9.108;2024-02-23T01:45:24;3.07;;;1.23;;
3085;SDS011;52812;48.960;9.108;2024-02-23T01:47:50;1.87;;;1.20;;
3085;SDS011;52812;48.960;9.108;2024-02-23T01:50:15;2.70;;;1.30;;
3085;SDS011;52812;48.960;9.108;2024-02-23T01:52:41;5.57;;;1.40;;
3085;SDS011;52812;48.960;9.108;2024-02-23T01:55:08;2.30;;;1.20;;
3085;SDS011;52812;48.960;9.108;2024-02-23T01:57:33;5.20;;;1.60;;
3085;SDS011;52812;48.960;9.108;2024-02-23T01:59:59;1.87;;;1.00;;
3085;SDS011;52812;48.960;9.108;2024-02-23T02:02:25;4.30;;;1.30;;
3085;SDS011;52812;48.960;9.108;2024-02-23T02:04:51;1.80;;;1.00;;
3085;SDS011;52812;48.960;9.108;2024-02-23T02:07:16;3.60;;;1.77;;
3085;SDS011;52812;48.960;9.108;2024-02-23T02:09:43;2.13;;;1.37;;
3085;SDS011;52812;48.960;9.108;2024-02-23T02:12:08;1.53;;;1.10;;
3085;SDS011;52812;48.960;9.108;2024-02-23T02:14:34;1.33;;;1.10;;
3085;SDS011;52812;48.960;9.108;2024-02-23T02:16:59;1.30;;;1.20;;
3085;SDS011;52812;48.960;9.108;2024-02-23T02:19:25;2.00;;;1.20;;
3085;SDS011;52812;48.960;9.108;2024-02-23T02:21:50;2.00;;;1.40;;
3085;SDS011;52812;48.960;9.108;2024-02-23T02:24:16;1.63;;;1.20;;
3085;SDS011;52812;48.960;9.108;2024-02-23T02:26:42;1.20;;;0.90;;
3085;SDS011;52812;48.960;9.108;2024-02-23T02:29:10;1.77;;;1.00;;
3085;SDS011;52812;48.960;9.108;2024-02-23T02:31:36;2.07;;;1.13;;
3085;SDS011;52812;48.960;9.108;2024-02-23T02:34:02;1.30;;;1.20;;
3085;SDS011;52812;48.960;9.108;2024-02-23T02:36:29;1.00;;;0.90;;
3085;SDS011;52812;48.960;9.108;2024-02-23T02:38:54;1.57;;;0.83;;
3085;SDS011;52812;48.960;9.108;2024-02-23T02:41:20;2.50;;;1.03;;
3085;SDS011;52812;48.960;9.108;2024-02-23T02:43:49;1.20;;;0.90;;
3085;SDS011;52812;48.960;9.108;2024-02-23T02:46:15;1.00;;;0.90;;
3085;SDS011;52812;48.960;9.108;2024-02-23T02:48:40;1.10;;;1.00;;
3085;SDS011;52812;48.960;9.108;2024-02-23T02:51:06;3.53;;;1.00;;
3085;SDS011;52812;48.960;9.108;2024-02-23T02:53:31;5.17;;;1.00;;
3085;SDS011;52812;48.960;9.108;2024-02-23T02:55:57;1.30;;;1.00;;
3085;SDS011;52812;48.960;9.108;2024-02-23T02:58:22;1.30;;;1.20;;
3085;SDS011;52812;48.960;9.108;2024-02-23T03:00:48;1.30;;;1.00;;
3085;SDS011;52812;48.960;9.108;2024-02-23T03:03:13;1.73;;;0.97;;
3085;SDS011;52812;48.960;9.108;2024-02-23T03:05:39;1.10;;;0.90;;
3085;SDS011;52812;48.960;9.108;2024-02-23T03:08:04;1.00;;;0.90;;
3085;SDS011;52812;48.960;9.108;2024-02-23T03:10:30;1.60;;;1.20;;
3085;SDS011;52812;48.960;9.108;2024-02-23T03:12:56;5.03;;;1.10;;
3085;SDS011;52812;48.960;9.108;2024-02-23T03:15:21;1.83;;;1.00;;
3085;SDS011;52812;48.960;9.108;2024-02-23T03:17:47;1.63;;;1.10;;
3085;SDS011;52812;48.960;9.108;2024-02-23T03:20:12;2.50;;;1.10;;
3085;SDS011;52812;48.960;9.108;2024-02-23T03:22:40;1.40;;;1.13;;
3085;SDS011;52812;48.960;9.108;2024-02-23T03:25:06;1.73;;;1.23;;
3085;SDS011;52812;48.960;9.108;2024-02-23T03:27:35;2.33;;;1.20;;
3085;SDS011;52812;48.960;9.108;2024-02-23T03:30:02;2.23;;;1.10;;
3085;SDS011;52812;48.960;9.108;2024-02-23T03:32:28;1.50;;;1.20;;
3085;SDS011;52812;48.960;9.108;2024-02-23T03:34:56;3.30;;;1.10;;
3085;SDS011;52812;48.960;9.108;2024-02-23T03:37:21;1.23;;;1.00;;
3085;SDS011;52812;48.960;9.108;2024-02-23T03:39:47;2.27;;;1.20;;
3085;SDS011;52812;48.960;9.108;2024-02-23T03:42:14;2.13;;;1.10;;
3085;SDS011;52812;48.960;9.108;2024-02-23T03:44:39;3.17;;;1.13;;
3085;SDS011;52812;48.960;9.108;2024-02-23T03:47:07;1.53;;;1.10;;
3085;SDS011;52812;48.960;9.108;2024-02-23T03:49:33;2.00;;;1.10;;
3085;SDS011;52812;48.960;9.108;2024-02-23T03:51:58;1.30;;;1.00;;
3085;SDS011;52812;48.960;9.108;2024-02-23T03:54:24;3.17;;;1.33;;
3085;SDS011;52812;48.960;9.108;2024-02-23T03:56:49;3.27;;;1.10;;
3085;SDS011;52812;48.960;9.108;2024-02-23T03:59:15;1.10;;;1.00;;
3085;SDS011;52812;48.960;9.108;2024-02-23T04:01:41;1.50;;;1.03;;
3085;SDS011;52812;48.960;9.108;2024-02-23T04:04:07;2.50;;;1.37;;
3085;SDS011;52812;48.960;9.108;2024-02-23T04:06:33;2.47;;;1.00;;
3085;SDS011;52812;48.960;9.108;2024-02-23T04:08:59;1.30;;;1.20;;
3085;SDS011;52812;48.960;9.108;2024-02-23T04:11:24;1.47;;;1.00;;
3085;SDS011;52812;48.960;9.108;2024-02-23T04:13:50;2.30;;;1.20;;
3085;SDS011;52812;48.960;9.108;2024-02-23T04:16:15;1.97;;;1.10;;
3085;SDS011;52812;48.960;9.108;2024-02-23T04:18:41;2.20;;;1.53;;
3085;SDS011;52812;48.960;9.108;2024-02-23T04:21:06;3.60;;;1.00;;
3085;SDS011;52812;48.960;9.108;2024-02-23T04:23:32;2.30;;;1.07;;
3085;SDS011;52812;48.960;9.108;2024-02-23T04:25:58;1.57;;;1.00;;
3085;SDS011;52812;48.960;9.108;2024-02-23T04:28:24;7.03;;;1.10;;
3085;SDS011;52812;48.960;9.108;2024-02-23T04:30:51;1.57;;;1.00;;
3085;SDS011;52812;48.960;9.108;2024-02-23T04:33:17;2.23;;;1.00;;
3085;SDS011;52812;48.960;9.108;2024-02-23T04:35:42;1.30;;;1.10;;
3085;SDS011;52812;48.960;9.108;2024-02-23T04:38:08;2.23;;;1.10;;
3085;SDS011;52812;48.960;9.108;2024-02-23T04:40:33;2.23;;;1.00;;
3085;SDS011;52812;48.960;9.108;2024-02-23T04:42:59;2.30;;;1.20;;
3085;SDS011;52812;48.960;9.108;2024-02-23T04:45:24;1.33;;;1.23;;
3085;SDS011;52812;48.960;9.108;2024-02-23T04:47:50;1.23;;;1.00;;
3085;SDS011;52812;48.960;9.108;2024-02-23T04:50:16;2.13;;;1.10;;
3085;SDS011;52812;48.960;9.108;2024-02-23T04:52:41;2.57;;;1.10;;
3085;SDS011;52812;48.960;9.108;2024-02-23T04:55:07;2.50;;;1.00;;
3085;SDS011;52812;48.960;9.108;2024-02-23T04:57:33;5.80;;;1.30;;
3085;SDS011;52812;48.960;9.108;2024-02-23T04:59:58;1.10;;;1.00;;
3085;SDS011;52812;48.960;9.108;2024-02-23T05:02:24;1.90;;;0.97;;
3085;SDS011;52812;48.960;9.108;2024-02-23T05:04:53;1.53;;;1.10;;
3085;SDS011;52812;48.960;9.108;2024-02-23T05:07:19;1.87;;;1.10;;
3085;SDS011;52812;48.960;9.108;2024-02-23T05:09:44;2.03;;;1.20;;
3085;SDS011;52812;48.960;9.108;2024-02-23T05:12:10;1.97;;;1.07;;
3085;SDS011;52812;48.960;9.108;2024-02-23T05:14:35;1.10;;;1.00;;
3085;SDS011;52812;48.960;9.108;2024-02-23T05:17:01;2.00;;;1.00;;
3085;SDS011;52812;48.960;9.108;2024-02-23T05:19:26;2.63;;;1.03;;
3085;SDS011;52812;48.960;9.108;2024-02-23T05:21:52;1.37;;;1.00;;
3085;SDS011;52812;48.960;9.108;2024-02-23T05:24:17;2.03;;;1.10;;
3085;SDS011;52812;48.960;9.108;2024-02-23T05:26:43;0.90;;;0.90;;
3085;SDS011;52812;48.960;9.108;2024-02-23T05:29:09;1.13;;;1.00;;
3085;SDS011;52812;48.960;9.108;2024-02-23T05:31:48;2.37;;;1.10;;
3085;SDS011;52812;48.960;9.108;2024-02-23T05:34:14;1.43;;;1.00;;
3085;SDS011;52812;48.960;9.108;2024-02-23T05:36:40;1.67;;;1.00;;
3085;SDS011;52812;48.960;9.108;2024-02-23T05:39:06;3.43;;;1.10;;
3085;SDS011;52812;48.960;9.108;2024-02-23T05:41:33;1.07;;;0.97;;
3085;SDS011;52812;48.960;9.108;2024-02-23T05:43:58;1.20;;;1.10;;
3085;SDS011;52812;48.960;9.108;2024-02-23T05:46:24;1.90;;;0.97;;
3085;SDS011;52812;48.960;9.108;2024-02-23T05:48:50;1.30;;;1.13;;
3085;SDS011;52812;48.960;9.108;2024-02-23T05:51:15;2.00;;;1.20;;
3085;SDS011;52812;48.960;9.108;2024-02-23T05:53:41;1.23;;;1.00;;
3085;SDS011;52812;48.960;9.108;2024-02-23T05:56:06;2.40;;;0.90;;
3085;SDS011;52812;48.960;9.108;2024-02-23T05:58:32;1.80;;;1.03;;
3085;SDS011;52812;48.960;9.108;2024-02-23T06:00:58;1.87;;;1.00;;
3085;SDS011;52812;48.960;9.108;2024-02-23T06:03:23;3.53;;;1.03;;
3085;SDS011;52812;48.960;9.108;2024-02-23T06:05:49;1.80;;;1.20;;
3085;SDS011;52812;48.960;9.108;2024-02-23T06:08:15;1.70;;;1.10;;
3085;SDS011;52812;48.960;9.108;2024-02-23T06:10:40;1.43;;;1.00;;
3085;SDS011;52812;48.960;9.108;2024-02-23T06:13:08;2.70;;;1.23;;
3085;SDS011;52812;48.960;9.108;2024-02-23T06:15:33;1.40;;;1.03;;
3085;SDS011;52812;48.960;9.108;2024-02-23T06:17:59;1.40;;;1.20;;
3085;SDS011;52812;48.960;9.108;2024-02-23T06:20:24;1.73;;;1.17;;
3085;SDS011;52812;48.960;9.108;2024-02-23T06:22:50;3.00;;;1.30;;
3085;SDS011;52812;48.960;9.108;2024-02-23T06:25:15;2.03;;;1.30;;
3085;SDS011;52812;48.960;9.108;2024-02-23T06:27:41;1.57;;;1.13;;
3085;SDS011;52812;48.960;9.108;2024-02-23T06:30:07;2.70;;;1.37;;
3085;SDS011;52812;48.960;9.108;2024-02-23T06:32:33;2.20;;;1.10;;
3085;SDS011;52812;48.960;9.108;2024-02-23T06:34:59;2.70;;;1.27;;
3085;SDS011;52812;48.960;9.108;2024-02-23T06:37:24;3.00;;;1.40;;
3085;SDS011;52812;48.960;9.108;2024-02-23T06:39:50;3.13;;;1.60;;
3085;SDS011;52812;48.960;9.108;2024-02-23T06:42:19;3.20;;;2.80;;
3085;SDS011;52812;48.960;9.108;2024-02-23T06:44:45;4.00;;;2.50;;
3085;SDS011;52812;48.960;9.108;2024-02-23T06:47:12;4.30;;;3.90;;
3085;SDS011;52812;48.960;9.108;2024-02-23T06:49:41;5.17;;;2.80;;
3085;SDS011;52812;48.960;9.108;2024-02-23T06:52:07;3.07;;;2.47;;
3085;SDS011;52812;48.960;9.108;2024-02-23T06:54:32;3.73;;;2.17;;
3085;SDS011;52812;48.960;9.108;2024-02-23T06:56:58;2.90;;;1.60;;
3085;SDS011;52812;48.960;9.108;2024-02-23T06:59:23;4.27;;;1.70;;
3085;SDS011;52812;48.960;9.108;2024-02-23T07:01:49;3.40;;;1.90;;
3085;SDS011;52812;48.960;9.108;2024-02-23T07:04:15;3.60;;;1.70;;
3085;SDS011;52812;48.960;9.108;2024-02-23T07:06:41;4.83;;;2.10;;
3085;SDS011;52812;48.960;9.108;2024-02-23T07:09:07;2.00;;;1.80;;
3085;SDS011;52812;48.960;9.108;2024-02-23T07:11:33;4.07;;;1.90;;
3085;SDS011;52812;48.960;9.108;2024-02-23T07:13:58;3.20;;;1.70;;
3085;SDS011;52812;48.960;9.108;2024-02-23T07:16:24;1.90;;;1.60;;
3085;SDS011;52812;48.960;9.108;2024-02-23T07:18:49;3.40;;;1.67;;
3085;SDS011;52812;48.960;9.108;2024-02-23T07:21:18;3.13;;;1.60;;
3085;SDS011;52812;48.960;9.108;2024-02-23T07:23:44;2.83;;;1.80;;
3085;SDS011;52812;48.960;9.108;2024-02-23T07:26:09;5.20;;;2.40;;
3085;SDS011;52812;48.960;9.108;2024-02-23T07:28:35;3.77;;;1.50;;
3085;SDS011;52812;48.960;9.108;2024-02-23T07:31:00;2.40;;;1.80;;
3085;SDS011;52812;48.960;9.108;2024-02-23T07:33:26;3.60;;;1.90;;
3085;SDS011;52812;48.960;9.108;2024-02-23T07:35:51;1.50;;;1.40;;
3085;SDS011;52812;48.960;9.108;2024-02-23T07:38:17;2.20;;;1.60;;
3085;SDS011;52812;48.960;9.108;2024-02-23T07:40:45;2.40;;;1.50;;
3085;SDS011;52812;48.960;9.108;2024-02-23T07:43:11;1.77;;;1.43;;
3085;SDS011;52812;48.960;9.108;2024-02-23T07:45:37;4.30;;;1.40;;
3085;SDS011;52812;48.960;9.108;2024-02-23T07:48:03;3.13;;;1.83;;
3085;SDS011;52812;48.960;9.108;2024-02-23T07:50:29;2.53;;;1.73;;
3085;SDS011;52812;48.960;9.108;2024-02-23T07:52:54;2.10;;;1.60;;
3085;SDS011;52812;48.960;9.108;2024-02-23T07:55:20;8.40;;;1.73;;
3085;SDS011;52812;48.960;9.108;2024-02-23T07:57:45;5.63;;;1.70;;
3085;SDS011;52812;48.960;9.108;2024-02-23T08:00:11;5.50;;;1.70;;
3085;SDS011;52812;48.960;9.108;2024-02-23T08:02:37;3.13;;;1.83;;
3085;SDS011;52812;48.960;9.108;2024-02-23T08:05:03;2.43;;;1.80;;
3085;SDS011;52812;48.960;9.108;2024-02-23T08:07:29;5.13;;;1.70;;
3085;SDS011;52812;48.960;9.108;2024-02-23T08:09:55;4.90;;;2.03;;
3085;SDS011;52812;48.960;9.108;2024-02-23T08:12:22;1.90;;;1.70;;
3085;SDS011;52812;48.960;9.108;2024-02-23T08:14:47;2.70;;;1.70;;
3085;SDS011;52812;48.960;9.108;2024-02-23T08:17:14;2.07;;;1.70;;
3085;SDS011;52812;48.960;9.108;2024-02-23T08:19:40;3.00;;;1.60;;
3085;SDS011;52812;48.960;9.108;2024-02-23T08:22:05;3.20;;;2.07;;
3085;SDS011;52812;48.960;9.108;2024-02-23T08:24:31;6.97;;;2.20;;
3085;SDS011;52812;48.960;9.108;2024-02-23T08:26:56;2.47;;;1.80;;
3085;SDS011;52812;48.960;9.108;2024-02-23T08:29:22;2.27;;;2.07;;
3085;SDS011;52812;48.960;9.108;2024-02-23T08:31:48;2.57;;;1.63;;
3085;SDS011;52812;48.960;9.108;2024-02-23T08:34:14;2.73;;;1.63;;
3085;SDS011;52812;48.960;9.108;2024-02-23T08:36:40;2.53;;;1.63;;
3085;SDS011;52812;48.960;9.108;2024-02-23T08:39:05;2.07;;;1.50;;
3085;SDS011;52812;48.960;9.108;2024-02-23T08:41:31;1.90;;;1.40;;
3085;SDS011;52812;48.960;9.108;2024-02-23T08:43:57;2.80;;;1.50;;
3085;SDS011;52812;48.960;9.108;2024-02-23T08:46:22;3.10;;;1.50;;
3085;SDS011;52812;48.960;9.108;2024-02-23T08:48:48;7.77;;;1.60;;
3085;SDS011;52812;48.960;9.108;2024-02-23T08:51:14;2.03;;;1.40;;
3085;SDS011;52812;48.960;9.108;2024-02-23T08:53:39;1.57;;;1.47;;
3085;SDS011;52812;48.960;9.108;2024-02-23T08:56:06;2.13;;;1.50;;
3085;SDS011;52812;48.960;9.108;2024-02-23T08:58:33;1.90;;;1.47;;
3085;SDS011;52812;48.960;9.108;2024-02-23T09:00:58;3.90;;;1.47;;
3085;SDS011;52812;48.960;9.108;2024-02-23T09:03:24;3.00;;;1.50;;
3085;SDS011;52812;48.960;9.108;2024-02-23T09:05:50;4.00;;;2.00;;
3085;SDS011;52812;48.960;9.108;2024-02-23T09:08:15;1.83;;;1.60;;
3085;SDS011;52812;48.960;9.108;2024-02-23T09:10:41;2.53;;;1.83;;
3085;SDS011;52812;48.960;9.108;2024-02-23T09:13:06;2.67;;;1.80;;
3085;SDS011;52812;48.960;9.108;2024-02-23T09:15:32;2.20;;;1.70;;
3085;SDS011;52812;48.960;9.108;2024-02-23T09:17:57;2.67;;;1.60;;
3085;SDS011;52812;48.960;9.108;2024-02-23T09:20:23;3.30;;;1.93;;
3085;SDS011;52812;48.960;9.108;2024-02-23T09:22:48;3.13;;;2.00;;
3085;SDS011;52812;48.960;9.108;2024-02-23T09:25:14;1.90;;;1.70;;
3085;SDS011;52812;48.960;9.108;2024-02-23T09:27:40;3.33;;;1.80;;
3085;SDS011;52812;48.960;9.108;2024-02-23T09:30:11;3.00;;;1.90;;
3085;SDS011;52812;48.960;9.108;2024-02-23T09:32:38;5.40;;;1.87;;
3085;SDS011;52812;48.960;9.108;2024-02-23T09:35:03;2.60;;;1.80;;
3085;SDS011;52812;48.960;9.108;2024-02-23T09:37:30;5.17;;;2.30;;
3085;SDS011;52812;48.960;9.108;2024-02-23T09:39:55;1.53;;;1.40;;
3085;SDS011;52812;48.960;9.108;2024-02-23T09:42:22;7.03;;;1.83;;
3085;SDS011;52812;48.960;9.108;2024-02-23T09:44:57;4.50;;;1.57;;
3085;SDS011;52812;48.960;9.108;2024-02-23T09:47:26;2.30;;;2.03;;
3085;SDS011;52812;48.960;9.108;2024-02-23T09:49:53;3.10;;;1.60;;
3085;SDS011;52812;48.960;9.108;2024-02-23T09:52:19;4.17;;;1.80;;
3085;SDS011;52812;48.960;9.108;2024-02-23T09:54:46;2.53;;;1.43;;
3085;SDS011;52812;48.960;9.108;2024-02-23T09:57:12;3.13;;;1.40;;
3085;SDS011;52812;48.960;9.108;2024-02-23T09:59:40;1.60;;;1.10;;
3085;SDS011;52812;48.960;9.108;2024-02-23T10:02:09;2.77;;;2.00;;
3085;SDS011;52812;48.960;9.108;2024-02-23T10:04:39;2.27;;;1.23;;
3085;SDS011;52812;48.960;9.108;2024-02-23T10:07:07;3.43;;;1.33;;
3085;SDS011;52812;48.960;9.108;2024-02-23T10:09:33;3.30;;;1.50;;
3085;SDS011;52812;48.960;9.108;2024-02-23T10:11:58;2.10;;;1.20;;
3085;SDS011;52812;48.960;9.108;2024-02-23T10:14:24;3.03;;;1.43;;
3085;SDS011;52812;48.960;9.108;2024-02-23T10:16:50;4.43;;;1.37;;
3085;SDS011;52812;48.960;9.108;2024-02-23T10:19:21;3.10;;;1.33;;
3085;SDS011;52812;48.960;9.108;2024-02-23T10:21:47;2.20;;;1.33;;
3085;SDS011;52812;48.960;9.108;2024-02-23T10:24:15;2.77;;;1.40;;
3085;SDS011;52812;48.960;9.108;2024-02-23T10:26:42;2.93;;;1.70;;
3085;SDS011;52812;48.960;9.108;2024-02-23T10:29:07;2.57;;;1.30;;
3085;SDS011;52812;48.960;9.108;2024-02-23T10:31:36;3.73;;;2.00;;
3085;SDS011;52812;48.960;9.108;2024-02-23T10:34:04;3.60;;;1.23;;
3085;SDS011;52812;48.960;9.108;2024-02-23T10:36:39;4.97;;;2.17;;
3085;SDS011;52812;48.960;9.108;2024-02-23T10:39:07;2.17;;;1.47;;
3085;SDS011;52812;48.960;9.108;2024-02-23T10:41:37;2.13;;;1.20;;
3085;SDS011;52812;48.960;9.108;2024-02-23T10:44:08;4.23;;;1.63;;
3085;SDS011;52812;48.960;9.108;2024-02-23T10:46:36;3.47;;;1.83;;
3085;SDS011;52812;48.960;9.108;2024-02-23T10:49:02;3.80;;;1.43;;
3085;SDS011;52812;48.960;9.108;2024-02-23T10:51:29;3.67;;;2.00;;
3085;SDS011;52812;48.960;9.108;2024-02-23T10:53:55;1.57;;;1.40;;
3085;SDS011;52812;48.960;9.108;2024-02-23T10:56:22;8.43;;;3.67;;
3085;SDS011;52812;48.960;9.108;2024-02-23T10:58:49;4.00;;;1.93;;
3085;SDS011;52812;48.960;9.108;2024-02-23T11:01:15;4.97;;;2.03;;
3085;SDS011;52812;48.960;9.108;2024-02-23T11:03:43;5.80;;;1.47;;
3085;SDS011;52812;48.960;9.108;2024-02-23T11:06:14;4.47;;;2.00;;
3085;SDS011;52812;48.960;9.108;2024-02-23T11:08:45;7.20;;;2.83;;
3085;SDS011;52812;48.960;9.108;2024-02-23T11:11:12;7.87;;;2.13;;
3085;SDS011;52812;48.960;9.108;2024-02-23T11:13:43;7.30;;;3.40;;
3085;SDS011;52812;48.960;9.108;2024-02-23T11:16:09;3.30;;;1.67;;
3085;SDS011;52812;48.960;9.108;2024-02-23T11:18:35;4.80;;;2.20;;
3085;SDS011;52812;48.960;9.108;2024-02-23T11:21:03;3.60;;;2.27;;
3085;SDS011;52812;48.960;9.108;2024-02-23T11:26:11;2.23;;;1.43;;
3085;SDS011;52812;48.960;9.108;2024-02-23T11:28:56;1.30;;;1.10;;
3085;SDS011;52812;48.960;9.108;2024-02-23T11:31:22;2.50;;;1.13;;
3085;SDS011;52812;48.960;9.108;2024-02-23T11:33:52;2.37;;;1.20;;
3085;SDS011;52812;48.960;9.108;2024-02-23T11:36:22;2.47;;;1.50;;
3085;SDS011;52812;48.960;9.108;2024-02-23T11:38:58;3.10;;;1.27;;
3085;SDS011;52812;48.960;9.108;2024-02-23T11:41:26;1.63;;;1.20;;
3085;SDS011;52812;48.960;9.108;2024-02-23T11:43:54;3.20;;;1.30;;
3085;SDS011;52812;48.960;9.108;2024-02-23T11:46:25;1.90;;;1.20;;
3085;SDS011;52812;48.960;9.108;2024-02-23T11:48:51;3.93;;;1.30;;
3085;SDS011;52812;48.960;9.108;2024-02-23T11:51:20;4.97;;;1.50;;
3085;SDS011;52812;48.960;9.108;2024-02-23T11:53:46;1.40;;;1.00;;
3085;SDS011;52812;48.960;9.108;2024-02-23T11:56:13;1.70;;;1.10;;
3085;SDS011;52812;48.960;9.108;2024-02-23T11:58:42;3.40;;;1.30;;
3085;SDS011;52812;48.960;9.108;2024-02-23T12:01:08;3.00;;;1.20;;
3085;SDS011;52812;48.960;9.108;2024-02-23T12:03:34;2.13;;;1.10;;
3085;SDS011;52812;48.960;9.108;2024-02-23T12:06:00;3.50;;;1.30;;
3085;SDS011;52812;48.960;9.108;2024-02-23T12:08:26;3.10;;;1.30;;
3085;SDS011;52812;48.960;9.108;2024-02-23T12:10:55;3.10;;;1.53;;
3085;SDS011;52812;48.960;9.108;2024-02-23T12:13:21;3.40;;;1.23;;
3085;SDS011;52812;48.960;9.108;2024-02-23T12:15:47;1.90;;;1.13;;
3085;SDS011;52812;48.960;9.108;2024-02-23T12:18:13;3.30;;;1.67;;
3085;SDS011;52812;48.960;9.108;2024-02-23T12:20:42;3.07;;;2.10;;
3085;SDS011;52812;48.960;9.108;2024-02-23T12:23:07;3.60;;;1.47;;
3085;SDS011;52812;48.960;9.108;2024-02-23T12:25:35;6.70;;;1.77;;
3085;SDS011;52812;48.960;9.108;2024-02-23T12:28:00;6.87;;;2.00;;
3085;SDS011;52812;48.960;9.108;2024-02-23T12:30:26;2.57;;;1.20;;
3085;SDS011;52812;48.960;9.108;2024-02-23T12:33:04;5.63;;;1.77;;
3085;SDS011;52812;48.960;9.108;2024-02-23T12:35:32;2.10;;;1.30;;
3085;SDS011;52812;48.960;9.108;2024-02-23T12:37:59;1.43;;;1.30;;
3085;SDS011;52812;48.960;9.108;2024-02-23T12:40:24;4.30;;;1.50;;
3085;SDS011;52812;48.960;9.108;2024-02-23T12:42:50;5.57;;;1.40;;
3085;SDS011;52812;48.960;9.108;2024-02-23T12:45:15;1.93;;;1.23;;
3085;SDS011;52812;48.960;9.108;2024-02-23T12:47:41;3.97;;;2.07;;
3085;SDS011;52812;48.960;9.108;2024-02-23T12:50:06;2.07;;;1.73;;
3085;SDS011;52812;48.960;9.108;2024-02-23T12:52:33;5.23;;;1.47;;
3085;SDS011;52812;48.960;9.108;2024-02-23T12:54:59;5.10;;;1.80;;
3085;SDS011;52812;48.960;9.108;2024-02-23T12:57:25;2.23;;;1.40;;
3085;SDS011;52812;48.960;9.108;2024-02-23T12:59:51;2.10;;;1.20;;
3085;SDS011;52812;48.960;9.108;2024-02-23T13:02:16;7.70;;;1.80;;
3085;SDS011;52812;48.960;9.108;2024-02-23T13:04:42;4.50;;;1.50;;
3085;SDS011;52812;48.960;9.108;2024-02-23T13:07:13;2.80;;;1.40;;
3085;SDS011;52812;48.960;9.108;2024-02-23T13:09:39;4.53;;;1.67;;
3085;SDS011;52812;48.960;9.108;2024-02-23T13:12:04;4.63;;;1.70;;
3085;SDS011;52812;48.960;9.108;2024-02-23T13:14:30;2.30;;;1.30;;
3085;SDS011;52812;48.960;9.108;2024-02-23T13:16:56;5.60;;;1.40;;
3085;SDS011;52812;48.960;9.108;2024-02-23T13:19:21;3.33;;;1.30;;
3085;SDS011;52812;48.960;9.108;2024-02-23T13:21:47;2.17;;;1.20;;
3085;SDS011;52812;48.960;9.108;2024-02-23T13:24:12;4.63;;;1.30;;
3085;SDS011;52812;48.960;9.108;2024-02-23T13:26:38;4.90;;;1.63;;
3085;SDS011;52812;48.960;9.108;2024-02-23T13:29:03;3.30;;;1.40;;
3085;SDS011;52812;48.960;9.108;2024-02-23T13:31:29;5.43;;;1.40;;
3085;SDS011;52812;48.960;9.108;2024-02-23T13:33:54;3.63;;;1.20;;
3085;SDS011;52812;48.960;9.108;2024-02-23T13:36:20;1.53;;;1.10;;
3085;SDS011;52812;48.960;9.108;2024-02-23T13:38:45;1.63;;;1.50;;
3085;SDS011;52812;48.960;9.108;2024-02-23T13:41:11;4.23;;;1.50;;
3085;SDS011;52812;48.960;9.108;2024-02-23T13:43:37;7.97;;;3.60;;
3085;SDS011;52812;48.960;9.108;2024-02-23T13:46:03;4.13;;;2.00;;
3085;SDS011;52812;48.960;9.108;2024-02-23T13:48:29;6.97;;;3.80;;
3085;SDS011;52812;48.960;9.108;2024-02-23T13:50:55;8.43;;;5.10;;
3085;SDS011;52812;48.960;9.108;2024-02-23T13:53:20;6.40;;;3.70;;
3085;SDS011;52812;48.960;9.108;2024-02-23T13:55:46;9.90;;;5.17;;
3085;SDS011;52812;48.960;9.108;2024-02-23T13:58:12;3.30;;;1.60;;
3085;SDS011;52812;48.960;9.108;2024-02-23T14:00:38;2.30;;;1.43;;
3085;SDS011;52812;48.960;9.108;2024-02-23T14:03:04;5.63;;;1.50;;
3085;SDS011;52812;48.960;9.108;2024-02-23T14:05:29;4.37;;;1.60;;
3085;SDS011;52812;48.960;9.108;2024-02-23T14:07:55;2.07;;;1.40;;
3085;SDS011;52812;48.960;9.108;2024-02-23T14:10:20;5.77;;;2.63;;
3085;SDS011;52812;48.960;9.108;2024-02-23T14:12:46;4.00;;;2.67;;
3085;SDS011;52812;48.960;9.108;2024-02-23T14:15:11;5.37;;;2.33;;
3085;SDS011;52812;48.960;9.108;2024-02-23T14:17:37;3.80;;;1.90;;
3085;SDS011;52812;48.960;9.108;2024-02-23T14:20:03;3.27;;;2.30;;
3085;SDS011;52812;48.960;9.108;2024-02-23T14:22:29;4.23;;;1.90;;
3085;SDS011;52812;48.960;9.108;2024-02-23T14:24:55;3.90;;;2.63;;
3085;SDS011;52812;48.960;9.108;2024-02-23T14:27:21;4.10;;;2.40;;
3085;SDS011;52812;48.960;9.108;2024-02-23T14:29:46;4.23;;;3.00;;
3085;SDS011;52812;48.960;9.108;2024-02-23T14:32:15;6.47;;;3.17;;
3085;SDS011;52812;48.960;9.108;2024-02-23T14:34:42;4.37;;;2.10;;
3085;SDS011;52812;48.960;9.108;2024-02-23T14:37:08;7.40;;;2.57;;
3085;SDS011;52812;48.960;9.108;2024-02-23T14:39:33;13.80;;;5.40;;
3085;SDS011;52812;48.960;9.108;2024-02-23T14:41:59;8.80;;;3.83;;
3085;SDS011;52812;48.960;9.108;2024-02-23T14:44:25;5.30;;;3.30;;
3085;SDS011;52812;48.960;9.108;2024-02-23T14:46:51;4.30;;;1.80;;
3085;SDS011;52812;48.960;9.108;2024-02-23T14:49:17;3.20;;;1.60;;
3085;SDS011;52812;48.960;9.108;2024-02-23T14:51:42;6.53;;;3.07;;
3085;SDS011;52812;48.960;9.108;2024-02-23T14:54:10;3.13;;;2.00;;
3085;SDS011;52812;48.960;9.108;2024-02-23T14:56:36;2.13;;;1.60;;